sensor_id;sensor_type;location;lat;lon;timestamp;P1;durP1;ratioP1;P2;durP2;ratioP2
920;SDS011;447;51.332;6.778;2023-07-13T00:00:48;2.67;;;2.20;;
920;SDS011;447;51.332;6.778;2023-07-13T00:03:16;4.03;;;2.87;;
920;SDS011;447;51.332;6.778;2023-07-13T00:05:44;6.23;;;2.80;;
920;SDS011;447;51.332;6.778;2023-07-13T00:08:13;2.80;;;2.60;;
920;SDS011;447;51.332;6.778;2023-07-13T00:13:32;2.87;;;2.63;;
920;SDS011;447;51.332;6.778;2023-07-13T00:16:00;2.70;;;2.50;;
920;SDS011;447;51.332;6.778;2023-07-13T00:18:26;2.87;;;2.67;;
920;SDS011;447;51.332;6.778;2023-07-13T00:20:57;2.87;;;2.67;;
920;SDS011;447;51.332;6.778;2023-07-13T00:23:30;3.63;;;2.43;;
920;SDS011;447;51.332;6.778;2023-07-13T00:26:02;2.60;;;2.40;;
920;SDS011;447;51.332;6.778;2023-07-13T00:28:29;3.87;;;2.60;;
920;SDS011;447;51.332;6.778;2023-07-13T00:30:55;3.40;;;2.90;;
920;SDS011;447;51.332;6.778;2023-07-13T00:33:23;2.77;;;2.57;;
920;SDS011;447;51.332;6.778;2023-07-13T00:35:49;3.67;;;2.63;;
920;SDS011;447;51.332;6.778;2023-07-13T00:38:15;4.73;;;2.87;;
920;SDS011;447;51.332;6.778;2023-07-13T00:40:42;3.10;;;2.60;;
920;SDS011;447;51.332;6.778;2023-07-13T00:43:14;2.97;;;2.77;;
920;SDS011;447;51.332;6.778;2023-07-13T00:48:20;5.80;;;2.93;;
920;SDS011;447;51.332;6.778;2023-07-13T00:50:50;4.10;;;3.13;;
920;SDS011;447;51.332;6.778;2023-07-13T00:53:20;4.23;;;2.63;;
920;SDS011;447;51.332;6.778;2023-07-13T00:55:47;3.67;;;3.30;;
920;SDS011;447;51.332;6.778;2023-07-13T00:58:15;3.47;;;2.60;;
920;SDS011;447;51.332;6.778;2023-07-13T01:00:41;5.23;;;2.73;;
920;SDS011;447;51.332;6.778;2023-07-13T01:03:10;3.50;;;2.70;;
920;SDS011;447;51.332;6.778;2023-07-13T01:05:39;2.90;;;2.60;;
920;SDS011;447;51.332;6.778;2023-07-13T01:08:05;3.00;;;2.70;;
920;SDS011;447;51.332;6.778;2023-07-13T01:10:32;3.00;;;2.70;;
920;SDS011;447;51.332;6.778;2023-07-13T01:13:07;3.40;;;2.60;;
920;SDS011;447;51.332;6.778;2023-07-13T01:18:15;3.10;;;2.80;;
920;SDS011;447;51.332;6.778;2023-07-13T01:23:22;3.60;;;2.63;;
920;SDS011;447;51.332;6.778;2023-07-13T01:25:50;3.23;;;2.73;;
920;SDS011;447;51.332;6.778;2023-07-13T01:28:17;2.97;;;2.67;;
920;SDS011;447;51.332;6.778;2023-07-13T01:30:45;3.53;;;2.50;;
920;SDS011;447;51.332;6.778;2023-07-13T01:33:15;3.47;;;3.17;;
920;SDS011;447;51.332;6.778;2023-07-13T01:35:44;2.90;;;2.70;;
920;SDS011;447;51.332;6.778;2023-07-13T01:38:16;3.43;;;2.70;;
920;SDS011;447;51.332;6.778;2023-07-13T01:40:43;3.60;;;2.70;;
920;SDS011;447;51.332;6.778;2023-07-13T01:43:12;3.70;;;2.53;;
920;SDS011;447;51.332;6.778;2023-07-13T01:45:38;3.40;;;2.80;;
920;SDS011;447;51.332;6.778;2023-07-13T01:48:04;5.53;;;2.80;;
920;SDS011;447;51.332;6.778;2023-07-13T01:50:32;3.23;;;2.77;;
920;SDS011;447;51.332;6.778;2023-07-13T01:52:58;2.83;;;2.47;;
920;SDS011;447;51.332;6.778;2023-07-13T01:55:28;5.20;;;2.90;;
920;SDS011;447;51.332;6.778;2023-07-13T01:57:55;3.00;;;2.70;;
920;SDS011;447;51.332;6.778;2023-07-13T02:00:22;3.90;;;2.53;;
920;SDS011;447;51.332;6.778;2023-07-13T02:02:47;2.90;;;2.50;;
920;SDS011;447;51.332;6.778;2023-07-13T02:05:18;3.30;;;2.60;;
920;SDS011;447;51.332;6.778;2023-07-13T02:07:47;3.83;;;3.00;;
920;SDS011;447;51.332;6.778;2023-07-13T02:10:13;3.23;;;2.93;;
920;SDS011;447;51.332;6.778;2023-07-13T02:12:40;3.03;;;2.83;;
920;SDS011;447;51.332;6.778;2023-07-13T02:15:11;3.43;;;3.10;;
920;SDS011;447;51.332;6.778;2023-07-13T02:17:37;4.87;;;2.80;;
920;SDS011;447;51.332;6.778;2023-07-13T02:20:04;4.67;;;3.00;;
920;SDS011;447;51.332;6.778;2023-07-13T02:22:31;4.23;;;3.20;;
920;SDS011;447;51.332;6.778;2023-07-13T02:24:59;3.97;;;3.07;;
920;SDS011;447;51.332;6.778;2023-07-13T02:27:26;4.40;;;2.47;;
920;SDS011;447;51.332;6.778;2023-07-13T02:29:52;2.60;;;2.30;;
920;SDS011;447;51.332;6.778;2023-07-13T02:32:21;5.20;;;2.70;;
920;SDS011;447;51.332;6.778;2023-07-13T02:34:47;3.20;;;2.57;;
920;SDS011;447;51.332;6.778;2023-07-13T02:37:15;4.40;;;2.60;;
920;SDS011;447;51.332;6.778;2023-07-13T02:39:45;3.00;;;2.70;;
920;SDS011;447;51.332;6.778;2023-07-13T02:42:13;5.93;;;3.10;;
920;SDS011;447;51.332;6.778;2023-07-13T02:44:39;5.20;;;2.80;;
920;SDS011;447;51.332;6.778;2023-07-13T02:47:05;3.57;;;2.93;;
920;SDS011;447;51.332;6.778;2023-07-13T02:49:33;5.60;;;2.70;;
920;SDS011;447;51.332;6.778;2023-07-13T02:51:59;4.10;;;2.70;;
920;SDS011;447;51.332;6.778;2023-07-13T02:54:25;2.60;;;2.43;;
920;SDS011;447;51.332;6.778;2023-07-13T02:56:56;2.83;;;2.60;;
920;SDS011;447;51.332;6.778;2023-07-13T02:59:21;4.10;;;3.03;;
920;SDS011;447;51.332;6.778;2023-07-13T03:01:47;3.03;;;2.80;;
920;SDS011;447;51.332;6.778;2023-07-13T03:04:13;5.73;;;3.07;;
920;SDS011;447;51.332;6.778;2023-07-13T03:06:40;2.90;;;2.70;;
920;SDS011;447;51.332;6.778;2023-07-13T03:09:10;4.40;;;3.00;;
920;SDS011;447;51.332;6.778;2023-07-13T03:11:41;4.83;;;3.00;;
920;SDS011;447;51.332;6.778;2023-07-13T03:14:22;4.27;;;3.20;;
920;SDS011;447;51.332;6.778;2023-07-13T03:16:51;4.57;;;3.10;;
920;SDS011;447;51.332;6.778;2023-07-13T03:19:18;3.13;;;2.80;;
920;SDS011;447;51.332;6.778;2023-07-13T03:21:48;2.70;;;2.50;;
920;SDS011;447;51.332;6.778;2023-07-13T03:24:14;3.30;;;2.73;;
920;SDS011;447;51.332;6.778;2023-07-13T03:26:41;4.30;;;2.53;;
920;SDS011;447;51.332;6.778;2023-07-13T03:29:12;3.13;;;2.83;;
920;SDS011;447;51.332;6.778;2023-07-13T03:31:38;3.17;;;2.83;;
920;SDS011;447;51.332;6.778;2023-07-13T03:34:05;2.63;;;2.43;;
920;SDS011;447;51.332;6.778;2023-07-13T03:36:35;3.77;;;2.37;;
920;SDS011;447;51.332;6.778;2023-07-13T03:39:05;2.63;;;2.10;;
920;SDS011;447;51.332;6.778;2023-07-13T03:41:48;2.90;;;2.40;;
920;SDS011;447;51.332;6.778;2023-07-13T03:44:16;2.70;;;2.23;;
920;SDS011;447;51.332;6.778;2023-07-13T03:46:43;3.17;;;2.97;;
920;SDS011;447;51.332;6.778;2023-07-13T03:49:13;3.00;;;2.67;;
920;SDS011;447;51.332;6.778;2023-07-13T03:51:39;3.47;;;2.67;;
920;SDS011;447;51.332;6.778;2023-07-13T03:54:05;2.90;;;2.60;;
920;SDS011;447;51.332;6.778;2023-07-13T03:56:31;3.27;;;2.63;;
920;SDS011;447;51.332;6.778;2023-07-13T03:58:59;2.63;;;2.43;;
920;SDS011;447;51.332;6.778;2023-07-13T04:01:31;3.40;;;2.93;;
920;SDS011;447;51.332;6.778;2023-07-13T04:03:59;3.03;;;2.70;;
920;SDS011;447;51.332;6.778;2023-07-13T04:06:27;3.50;;;2.80;;
920;SDS011;447;51.332;6.778;2023-07-13T04:08:55;3.57;;;3.03;;
920;SDS011;447;51.332;6.778;2023-07-13T04:11:26;2.93;;;2.73;;
920;SDS011;447;51.332;6.778;2023-07-13T04:13:55;2.67;;;2.40;;
920;SDS011;447;51.332;6.778;2023-07-13T04:16:24;3.63;;;3.33;;
920;SDS011;447;51.332;6.778;2023-07-13T04:18:50;3.00;;;2.70;;
920;SDS011;447;51.332;6.778;2023-07-13T04:21:22;7.47;;;2.97;;
920;SDS011;447;51.332;6.778;2023-07-13T04:23:50;3.10;;;2.73;;
920;SDS011;447;51.332;6.778;2023-07-13T04:26:16;3.57;;;2.80;;
920;SDS011;447;51.332;6.778;2023-07-13T04:28:50;3.03;;;2.80;;
920;SDS011;447;51.332;6.778;2023-07-13T04:31:17;3.30;;;3.00;;
920;SDS011;447;51.332;6.778;2023-07-13T04:33:43;4.00;;;2.97;;
920;SDS011;447;51.332;6.778;2023-07-13T04:36:09;3.60;;;3.00;;
920;SDS011;447;51.332;6.778;2023-07-13T04:38:35;3.20;;;2.40;;
920;SDS011;447;51.332;6.778;2023-07-13T04:41:03;3.13;;;2.83;;
920;SDS011;447;51.332;6.778;2023-07-13T04:43:31;3.87;;;3.20;;
920;SDS011;447;51.332;6.778;2023-07-13T04:46:02;3.00;;;2.80;;
920;SDS011;447;51.332;6.778;2023-07-13T04:48:29;2.83;;;2.50;;
920;SDS011;447;51.332;6.778;2023-07-13T04:50:56;3.73;;;3.00;;
920;SDS011;447;51.332;6.778;2023-07-13T04:53:23;4.13;;;3.20;;
920;SDS011;447;51.332;6.778;2023-07-13T04:55:50;3.90;;;3.60;;
920;SDS011;447;51.332;6.778;2023-07-13T04:58:16;3.47;;;3.07;;
920;SDS011;447;51.332;6.778;2023-07-13T05:00:42;3.73;;;3.00;;
920;SDS011;447;51.332;6.778;2023-07-13T05:03:13;3.30;;;3.00;;
920;SDS011;447;51.332;6.778;2023-07-13T05:05:41;5.10;;;2.80;;
920;SDS011;447;51.332;6.778;2023-07-13T05:08:07;5.60;;;3.13;;
920;SDS011;447;51.332;6.778;2023-07-13T05:10:33;3.13;;;2.83;;
920;SDS011;447;51.332;6.778;2023-07-13T05:13:02;2.97;;;2.77;;
920;SDS011;447;51.332;6.778;2023-07-13T05:15:28;3.30;;;2.87;;
920;SDS011;447;51.332;6.778;2023-07-13T05:17:54;5.50;;;3.03;;
920;SDS011;447;51.332;6.778;2023-07-13T05:20:22;4.17;;;2.97;;
920;SDS011;447;51.332;6.778;2023-07-13T05:22:48;2.90;;;2.67;;
920;SDS011;447;51.332;6.778;2023-07-13T05:25:15;5.90;;;3.60;;
920;SDS011;447;51.332;6.778;2023-07-13T05:27:41;3.00;;;2.70;;
920;SDS011;447;51.332;6.778;2023-07-13T05:30:10;3.57;;;3.27;;
920;SDS011;447;51.332;6.778;2023-07-13T05:32:37;3.40;;;3.00;;
920;SDS011;447;51.332;6.778;2023-07-13T05:35:03;3.37;;;3.07;;
920;SDS011;447;51.332;6.778;2023-07-13T05:37:29;3.70;;;2.57;;
920;SDS011;447;51.332;6.778;2023-07-13T05:39:55;2.87;;;2.67;;
920;SDS011;447;51.332;6.778;2023-07-13T05:42:24;6.07;;;3.00;;
920;SDS011;447;51.332;6.778;2023-07-13T05:44:52;3.30;;;3.00;;
920;SDS011;447;51.332;6.778;2023-07-13T05:47:21;3.63;;;2.77;;
920;SDS011;447;51.332;6.778;2023-07-13T05:49:47;3.03;;;2.73;;
920;SDS011;447;51.332;6.778;2023-07-13T05:52:15;4.77;;;3.30;;
920;SDS011;447;51.332;6.778;2023-07-13T05:54:41;3.33;;;2.70;;
920;SDS011;447;51.332;6.778;2023-07-13T05:57:07;4.27;;;3.00;;
920;SDS011;447;51.332;6.778;2023-07-13T05:59:33;3.40;;;3.10;;
920;SDS011;447;51.332;6.778;2023-07-13T06:01:58;3.67;;;3.20;;
920;SDS011;447;51.332;6.778;2023-07-13T06:04:29;3.13;;;2.83;;
920;SDS011;447;51.332;6.778;2023-07-13T06:06:55;5.00;;;3.07;;
920;SDS011;447;51.332;6.778;2023-07-13T06:09:21;5.47;;;3.03;;
920;SDS011;447;51.332;6.778;2023-07-13T06:11:49;5.43;;;3.13;;
920;SDS011;447;51.332;6.778;2023-07-13T06:14:17;5.13;;;3.33;;
920;SDS011;447;51.332;6.778;2023-07-13T06:16:43;6.03;;;3.27;;
920;SDS011;447;51.332;6.778;2023-07-13T06:19:11;4.23;;;3.30;;
920;SDS011;447;51.332;6.778;2023-07-13T06:21:37;3.30;;;2.90;;
920;SDS011;447;51.332;6.778;2023-07-13T06:24:03;5.00;;;3.30;;
920;SDS011;447;51.332;6.778;2023-07-13T06:26:29;4.77;;;3.30;;
920;SDS011;447;51.332;6.778;2023-07-13T06:28:55;4.00;;;3.30;;
920;SDS011;447;51.332;6.778;2023-07-13T06:31:23;3.30;;;2.80;;
920;SDS011;447;51.332;6.778;2023-07-13T06:33:49;4.83;;;3.90;;
920;SDS011;447;51.332;6.778;2023-07-13T06:36:17;3.30;;;3.00;;
920;SDS011;447;51.332;6.778;2023-07-13T06:38:43;3.17;;;2.87;;
920;SDS011;447;51.332;6.778;2023-07-13T06:41:09;5.67;;;3.40;;
920;SDS011;447;51.332;6.778;2023-07-13T06:43:35;5.83;;;3.37;;
920;SDS011;447;51.332;6.778;2023-07-13T06:46:03;4.80;;;3.30;;
920;SDS011;447;51.332;6.778;2023-07-13T06:48:31;3.93;;;3.27;;
920;SDS011;447;51.332;6.778;2023-07-13T06:50:59;4.20;;;3.37;;
920;SDS011;447;51.332;6.778;2023-07-13T06:53:27;3.73;;;3.33;;
920;SDS011;447;51.332;6.778;2023-07-13T06:55:53;5.23;;;3.93;;
920;SDS011;447;51.332;6.778;2023-07-13T06:58:19;5.87;;;3.93;;
920;SDS011;447;51.332;6.778;2023-07-13T07:00:49;6.00;;;3.50;;
920;SDS011;447;51.332;6.778;2023-07-13T07:03:17;4.60;;;3.20;;
920;SDS011;447;51.332;6.778;2023-07-13T07:05:43;4.37;;;3.60;;
920;SDS011;447;51.332;6.778;2023-07-13T07:08:09;5.40;;;3.73;;
920;SDS011;447;51.332;6.778;2023-07-13T07:10:40;4.03;;;3.63;;
920;SDS011;447;51.332;6.778;2023-07-13T07:13:07;3.93;;;3.60;;
920;SDS011;447;51.332;6.778;2023-07-13T07:15:34;6.20;;;3.77;;
920;SDS011;447;51.332;6.778;2023-07-13T07:18:00;3.63;;;3.20;;
920;SDS011;447;51.332;6.778;2023-07-13T07:20:26;5.03;;;3.90;;
920;SDS011;447;51.332;6.778;2023-07-13T07:22:52;4.60;;;3.80;;
920;SDS011;447;51.332;6.778;2023-07-13T07:25:19;4.10;;;3.70;;
920;SDS011;447;51.332;6.778;2023-07-13T07:27:45;4.50;;;3.80;;
920;SDS011;447;51.332;6.778;2023-07-13T07:30:11;4.20;;;3.30;;
920;SDS011;447;51.332;6.778;2023-07-13T07:32:40;4.27;;;3.23;;
920;SDS011;447;51.332;6.778;2023-07-13T07:35:10;6.63;;;4.97;;
920;SDS011;447;51.332;6.778;2023-07-13T07:37:36;5.50;;;3.90;;
920;SDS011;447;51.332;6.778;2023-07-13T07:40:02;4.73;;;4.10;;
920;SDS011;447;51.332;6.778;2023-07-13T07:42:29;4.00;;;3.40;;
920;SDS011;447;51.332;6.778;2023-07-13T07:44:55;5.93;;;3.33;;
920;SDS011;447;51.332;6.778;2023-07-13T07:47:22;3.63;;;3.33;;
920;SDS011;447;51.332;6.778;2023-07-13T07:49:49;4.90;;;3.50;;
920;SDS011;447;51.332;6.778;2023-07-13T07:52:15;6.00;;;3.70;;
920;SDS011;447;51.332;6.778;2023-07-13T07:54:45;4.20;;;3.60;;
920;SDS011;447;51.332;6.778;2023-07-13T07:57:11;5.40;;;4.10;;
920;SDS011;447;51.332;6.778;2023-07-13T07:59:37;5.50;;;3.93;;
920;SDS011;447;51.332;6.778;2023-07-13T08:02:05;5.37;;;4.27;;
920;SDS011;447;51.332;6.778;2023-07-13T08:04:32;4.23;;;3.60;;
920;SDS011;447;51.332;6.778;2023-07-13T08:06:57;5.60;;;3.80;;
920;SDS011;447;51.332;6.778;2023-07-13T08:09:23;5.03;;;4.00;;
920;SDS011;447;51.332;6.778;2023-07-13T08:11:54;5.70;;;3.80;;
920;SDS011;447;51.332;6.778;2023-07-13T08:14:20;5.87;;;4.33;;
920;SDS011;447;51.332;6.778;2023-07-13T08:16:46;3.80;;;3.47;;
920;SDS011;447;51.332;6.778;2023-07-13T08:19:12;4.87;;;4.37;;
920;SDS011;447;51.332;6.778;2023-07-13T08:21:38;5.53;;;4.00;;
920;SDS011;447;51.332;6.778;2023-07-13T08:24:04;6.20;;;4.70;;
920;SDS011;447;51.332;6.778;2023-07-13T08:26:30;4.43;;;4.03;;
920;SDS011;447;51.332;6.778;2023-07-13T08:28:56;4.10;;;3.70;;
920;SDS011;447;51.332;6.778;2023-07-13T08:31:24;4.10;;;3.70;;
920;SDS011;447;51.332;6.778;2023-07-13T08:33:53;5.20;;;4.80;;
920;SDS011;447;51.332;6.778;2023-07-13T08:36:18;4.10;;;3.43;;
920;SDS011;447;51.332;6.778;2023-07-13T08:38:44;7.07;;;4.63;;
920;SDS011;447;51.332;6.778;2023-07-13T08:41:14;6.50;;;4.50;;
920;SDS011;447;51.332;6.778;2023-07-13T08:43:42;4.70;;;4.27;;
920;SDS011;447;51.332;6.778;2023-07-13T08:48:56;4.60;;;4.20;;
920;SDS011;447;51.332;6.778;2023-07-13T08:53:50;5.17;;;3.67;;
920;SDS011;447;51.332;6.778;2023-07-13T08:56:21;5.63;;;4.00;;
920;SDS011;447;51.332;6.778;2023-07-13T08:58:56;5.30;;;4.00;;
920;SDS011;447;51.332;6.778;2023-07-13T09:01:27;6.37;;;3.80;;
920;SDS011;447;51.332;6.778;2023-07-13T09:04:18;5.40;;;4.20;;
920;SDS011;447;51.332;6.778;2023-07-13T09:14:50;4.63;;;3.97;;
920;SDS011;447;51.332;6.778;2023-07-13T09:17:28;5.50;;;4.03;;
920;SDS011;447;51.332;6.778;2023-07-13T09:23:10;8.23;;;4.73;;
920;SDS011;447;51.332;6.778;2023-07-13T09:25:40;5.03;;;4.53;;
920;SDS011;447;51.332;6.778;2023-07-13T09:28:11;7.50;;;5.13;;
920;SDS011;447;51.332;6.778;2023-07-13T09:31:01;7.10;;;4.50;;
920;SDS011;447;51.332;6.778;2023-07-13T09:33:28;4.70;;;4.03;;
920;SDS011;447;51.332;6.778;2023-07-13T09:35:56;4.93;;;4.37;;
920;SDS011;447;51.332;6.778;2023-07-13T09:38:24;5.90;;;3.93;;
920;SDS011;447;51.332;6.778;2023-07-13T09:46:45;5.33;;;4.13;;
920;SDS011;447;51.332;6.778;2023-07-13T09:49:24;6.10;;;4.20;;
920;SDS011;447;51.332;6.778;2023-07-13T09:51:58;7.07;;;4.30;;
920;SDS011;447;51.332;6.778;2023-07-13T09:54:28;5.67;;;4.20;;
920;SDS011;447;51.332;6.778;2023-07-13T09:56:58;7.00;;;4.27;;
920;SDS011;447;51.332;6.778;2023-07-13T09:59:35;6.03;;;4.27;;
920;SDS011;447;51.332;6.778;2023-07-13T10:05:07;6.80;;;3.83;;
920;SDS011;447;51.332;6.778;2023-07-13T10:07:39;7.63;;;4.13;;
920;SDS011;447;51.332;6.778;2023-07-13T10:10:18;5.50;;;4.27;;
920;SDS011;447;51.332;6.778;2023-07-13T10:12:46;5.27;;;4.10;;
920;SDS011;447;51.332;6.778;2023-07-13T10:15:18;4.40;;;4.00;;
920;SDS011;447;51.332;6.778;2023-07-13T10:17:53;10.83;;;4.37;;
920;SDS011;447;51.332;6.778;2023-07-13T10:20:21;4.60;;;3.60;;
920;SDS011;447;51.332;6.778;2023-07-13T10:25:32;6.63;;;4.30;;
920;SDS011;447;51.332;6.778;2023-07-13T10:30:53;6.77;;;4.40;;
920;SDS011;447;51.332;6.778;2023-07-13T10:33:22;8.13;;;3.77;;
920;SDS011;447;51.332;6.778;2023-07-13T10:35:48;4.23;;;3.83;;
920;SDS011;447;51.332;6.778;2023-07-13T10:38:21;4.93;;;3.70;;
920;SDS011;447;51.332;6.778;2023-07-13T10:41:14;4.27;;;3.87;;
920;SDS011;447;51.332;6.778;2023-07-13T10:43:47;6.47;;;3.90;;
920;SDS011;447;51.332;6.778;2023-07-13T10:49:10;5.07;;;4.50;;
920;SDS011;447;51.332;6.778;2023-07-13T10:51:38;4.20;;;3.80;;
920;SDS011;447;51.332;6.778;2023-07-13T10:58:13;4.90;;;3.83;;
920;SDS011;447;51.332;6.778;2023-07-13T11:01:28;6.60;;;4.43;;
920;SDS011;447;51.332;6.778;2023-07-13T11:06:33;5.43;;;4.27;;
920;SDS011;447;51.332;6.778;2023-07-13T11:20:09;4.50;;;4.00;;
920;SDS011;447;51.332;6.778;2023-07-13T11:22:51;4.87;;;3.80;;
920;SDS011;447;51.332;6.778;2023-07-13T11:25:36;6.50;;;4.00;;
920;SDS011;447;51.332;6.778;2023-07-13T11:30:45;4.63;;;4.30;;
920;SDS011;447;51.332;6.778;2023-07-13T11:33:22;4.20;;;3.87;;
920;SDS011;447;51.332;6.778;2023-07-13T11:36:17;4.40;;;3.63;;
920;SDS011;447;51.332;6.778;2023-07-13T11:39:10;4.93;;;4.40;;
920;SDS011;447;51.332;6.778;2023-07-13T11:41:57;4.63;;;4.07;;
920;SDS011;447;51.332;6.778;2023-07-13T11:44:28;3.73;;;3.40;;
920;SDS011;447;51.332;6.778;2023-07-13T11:46:56;5.57;;;3.70;;
920;SDS011;447;51.332;6.778;2023-07-13T11:49:27;5.23;;;3.50;;
920;SDS011;447;51.332;6.778;2023-07-13T11:51:57;3.63;;;3.33;;
920;SDS011;447;51.332;6.778;2023-07-13T11:54:28;4.33;;;3.80;;
920;SDS011;447;51.332;6.778;2023-07-13T11:56:58;4.60;;;3.90;;
920;SDS011;447;51.332;6.778;2023-07-13T11:59:29;3.90;;;3.53;;
920;SDS011;447;51.332;6.778;2023-07-13T12:01:57;5.60;;;3.40;;
920;SDS011;447;51.332;6.778;2023-07-13T12:04:27;4.47;;;4.03;;
920;SDS011;447;51.332;6.778;2023-07-13T12:07:03;3.60;;;3.30;;
920;SDS011;447;51.332;6.778;2023-07-13T12:09:33;4.40;;;4.00;;
920;SDS011;447;51.332;6.778;2023-07-13T12:12:28;4.83;;;4.10;;
920;SDS011;447;51.332;6.778;2023-07-13T12:14:58;4.80;;;4.40;;
920;SDS011;447;51.332;6.778;2023-07-13T12:17:34;4.77;;;3.87;;
920;SDS011;447;51.332;6.778;2023-07-13T12:20:04;6.70;;;3.77;;
920;SDS011;447;51.332;6.778;2023-07-13T12:22:47;5.50;;;4.03;;
920;SDS011;447;51.332;6.778;2023-07-13T12:25:17;3.70;;;3.40;;
920;SDS011;447;51.332;6.778;2023-07-13T12:27:46;3.20;;;3.00;;
920;SDS011;447;51.332;6.778;2023-07-13T12:30:21;4.50;;;3.47;;
920;SDS011;447;51.332;6.778;2023-07-13T12:32:59;3.97;;;3.67;;
920;SDS011;447;51.332;6.778;2023-07-13T12:35:31;3.60;;;3.30;;
920;SDS011;447;51.332;6.778;2023-07-13T12:38:04;3.83;;;3.40;;
920;SDS011;447;51.332;6.778;2023-07-13T12:40:35;3.53;;;3.23;;
920;SDS011;447;51.332;6.778;2023-07-13T12:43:02;3.87;;;3.53;;
920;SDS011;447;51.332;6.778;2023-07-13T12:45:32;4.03;;;3.20;;
920;SDS011;447;51.332;6.778;2023-07-13T12:47:59;4.10;;;3.67;;
920;SDS011;447;51.332;6.778;2023-07-13T12:50:43;6.83;;;4.00;;
920;SDS011;447;51.332;6.778;2023-07-13T12:53:20;3.73;;;3.43;;
920;SDS011;447;51.332;6.778;2023-07-13T12:55:55;4.73;;;4.20;;
920;SDS011;447;51.332;6.778;2023-07-13T13:01:05;3.60;;;3.37;;
920;SDS011;447;51.332;6.778;2023-07-13T13:03:37;4.63;;;3.73;;
920;SDS011;447;51.332;6.778;2023-07-13T13:06:17;5.20;;;3.37;;
920;SDS011;447;51.332;6.778;2023-07-13T13:08:53;4.30;;;3.50;;
920;SDS011;447;51.332;6.778;2023-07-13T13:11:21;4.23;;;3.83;;
920;SDS011;447;51.332;6.778;2023-07-13T13:13:50;3.80;;;3.40;;
920;SDS011;447;51.332;6.778;2023-07-13T13:19:24;3.90;;;3.60;;
920;SDS011;447;51.332;6.778;2023-07-13T13:21:53;4.20;;;3.90;;
920;SDS011;447;51.332;6.778;2023-07-13T13:24:26;4.00;;;3.50;;
920;SDS011;447;51.332;6.778;2023-07-13T13:26:53;4.10;;;3.67;;
920;SDS011;447;51.332;6.778;2023-07-13T13:29:22;5.37;;;4.10;;
920;SDS011;447;51.332;6.778;2023-07-13T13:31:53;4.03;;;3.73;;
920;SDS011;447;51.332;6.778;2023-07-13T13:34:22;4.30;;;3.90;;
920;SDS011;447;51.332;6.778;2023-07-13T13:36:53;4.50;;;4.10;;
920;SDS011;447;51.332;6.778;2023-07-13T13:42:04;3.77;;;3.47;;
920;SDS011;447;51.332;6.778;2023-07-13T13:44:32;4.67;;;4.20;;
920;SDS011;447;51.332;6.778;2023-07-13T13:47:00;3.50;;;3.20;;
920;SDS011;447;51.332;6.778;2023-07-13T13:49:29;4.07;;;3.70;;
920;SDS011;447;51.332;6.778;2023-07-13T13:51:58;3.97;;;3.67;;
920;SDS011;447;51.332;6.778;2023-07-13T13:54:24;4.60;;;3.23;;
920;SDS011;447;51.332;6.778;2023-07-13T13:56:51;4.33;;;3.93;;
920;SDS011;447;51.332;6.778;2023-07-13T13:59:18;4.63;;;3.57;;
920;SDS011;447;51.332;6.778;2023-07-13T14:01:45;4.03;;;3.50;;
920;SDS011;447;51.332;6.778;2023-07-13T14:04:17;3.93;;;3.63;;
920;SDS011;447;51.332;6.778;2023-07-13T14:06:44;4.10;;;3.80;;
920;SDS011;447;51.332;6.778;2023-07-13T14:09:11;4.97;;;3.80;;
920;SDS011;447;51.332;6.778;2023-07-13T14:11:43;3.60;;;3.30;;
920;SDS011;447;51.332;6.778;2023-07-13T14:14:15;3.50;;;3.20;;
920;SDS011;447;51.332;6.778;2023-07-13T14:16:43;3.53;;;3.33;;
920;SDS011;447;51.332;6.778;2023-07-13T14:19:14;5.80;;;4.07;;
920;SDS011;447;51.332;6.778;2023-07-13T14:21:40;3.77;;;3.47;;
920;SDS011;447;51.332;6.778;2023-07-13T14:24:06;5.43;;;3.87;;
920;SDS011;447;51.332;6.778;2023-07-13T14:26:35;4.10;;;3.80;;
920;SDS011;447;51.332;6.778;2023-07-13T14:29:04;4.90;;;3.70;;
920;SDS011;447;51.332;6.778;2023-07-13T14:31:37;3.83;;;3.50;;
920;SDS011;447;51.332;6.778;2023-07-13T14:34:11;4.30;;;3.90;;
920;SDS011;447;51.332;6.778;2023-07-13T14:36:41;4.93;;;3.67;;
920;SDS011;447;51.332;6.778;2023-07-13T14:39:22;4.57;;;3.67;;
920;SDS011;447;51.332;6.778;2023-07-13T14:41:53;4.30;;;3.70;;
920;SDS011;447;51.332;6.778;2023-07-13T14:44:21;5.10;;;4.60;;
920;SDS011;447;51.332;6.778;2023-07-13T14:46:54;4.13;;;3.83;;
920;SDS011;447;51.332;6.778;2023-07-13T14:49:27;4.37;;;3.93;;
920;SDS011;447;51.332;6.778;2023-07-13T14:52:22;3.83;;;3.40;;
920;SDS011;447;51.332;6.778;2023-07-13T14:54:48;3.63;;;3.40;;
920;SDS011;447;51.332;6.778;2023-07-13T14:57:15;9.33;;;4.43;;
920;SDS011;447;51.332;6.778;2023-07-13T14:59:45;3.50;;;3.20;;
920;SDS011;447;51.332;6.778;2023-07-13T15:04:39;3.93;;;3.57;;
920;SDS011;447;51.332;6.778;2023-07-13T15:07:07;4.57;;;3.70;;
920;SDS011;447;51.332;6.778;2023-07-13T15:09:37;4.20;;;3.80;;
920;SDS011;447;51.332;6.778;2023-07-13T15:12:03;5.10;;;3.93;;
920;SDS011;447;51.332;6.778;2023-07-13T15:14:31;4.00;;;3.60;;
920;SDS011;447;51.332;6.778;2023-07-13T15:17:00;3.30;;;3.00;;
920;SDS011;447;51.332;6.778;2023-07-13T15:19:31;5.83;;;4.17;;
920;SDS011;447;51.332;6.778;2023-07-13T15:22:00;4.07;;;3.67;;
920;SDS011;447;51.332;6.778;2023-07-13T15:24:30;4.30;;;3.73;;
920;SDS011;447;51.332;6.778;2023-07-13T15:26:59;6.23;;;3.60;;
920;SDS011;447;51.332;6.778;2023-07-13T15:29:25;4.80;;;4.30;;
920;SDS011;447;51.332;6.778;2023-07-13T15:31:50;4.70;;;3.50;;
920;SDS011;447;51.332;6.778;2023-07-13T15:34:18;4.00;;;3.60;;
920;SDS011;447;51.332;6.778;2023-07-13T15:36:50;4.10;;;3.80;;
920;SDS011;447;51.332;6.778;2023-07-13T15:39:18;3.83;;;3.53;;
920;SDS011;447;51.332;6.778;2023-07-13T15:41:46;4.40;;;4.00;;
920;SDS011;447;51.332;6.778;2023-07-13T15:44:23;4.50;;;4.10;;
920;SDS011;447;51.332;6.778;2023-07-13T15:46:53;5.47;;;3.90;;
920;SDS011;447;51.332;6.778;2023-07-13T15:49:19;4.63;;;4.00;;
920;SDS011;447;51.332;6.778;2023-07-13T15:51:47;5.20;;;3.93;;
920;SDS011;447;51.332;6.778;2023-07-13T15:54:14;4.17;;;3.87;;
920;SDS011;447;51.332;6.778;2023-07-13T15:56:47;6.80;;;3.70;;
920;SDS011;447;51.332;6.778;2023-07-13T15:59:21;5.37;;;3.93;;
920;SDS011;447;51.332;6.778;2023-07-13T16:01:47;6.07;;;4.03;;
920;SDS011;447;51.332;6.778;2023-07-13T16:04:15;4.27;;;3.90;;
920;SDS011;447;51.332;6.778;2023-07-13T16:06:44;4.40;;;4.00;;
920;SDS011;447;51.332;6.778;2023-07-13T16:09:15;4.27;;;3.43;;
920;SDS011;447;51.332;6.778;2023-07-13T16:11:47;3.97;;;3.70;;
920;SDS011;447;51.332;6.778;2023-07-13T16:14:14;4.00;;;3.70;;
920;SDS011;447;51.332;6.778;2023-07-13T16:16:41;3.60;;;3.30;;
920;SDS011;447;51.332;6.778;2023-07-13T16:19:10;4.20;;;3.90;;
920;SDS011;447;51.332;6.778;2023-07-13T16:21:43;4.80;;;3.77;;
920;SDS011;447;51.332;6.778;2023-07-13T16:24:18;6.40;;;4.33;;
920;SDS011;447;51.332;6.778;2023-07-13T16:26:52;5.00;;;3.43;;
920;SDS011;447;51.332;6.778;2023-07-13T16:29:24;3.93;;;3.63;;
920;SDS011;447;51.332;6.778;2023-07-13T16:32:04;4.17;;;3.83;;
920;SDS011;447;51.332;6.778;2023-07-13T16:34:35;4.07;;;3.73;;
920;SDS011;447;51.332;6.778;2023-07-13T16:37:16;3.87;;;3.43;;
920;SDS011;447;51.332;6.778;2023-07-13T16:40:19;3.63;;;3.30;;
920;SDS011;447;51.332;6.778;2023-07-13T16:46:14;4.80;;;3.80;;
920;SDS011;447;51.332;6.778;2023-07-13T16:48:47;3.60;;;3.40;;
920;SDS011;447;51.332;6.778;2023-07-13T16:51:15;3.70;;;3.30;;
920;SDS011;447;51.332;6.778;2023-07-13T16:53:44;4.97;;;3.67;;
920;SDS011;447;51.332;6.778;2023-07-13T16:56:14;4.93;;;3.80;;
920;SDS011;447;51.332;6.778;2023-07-13T16:58:47;3.70;;;3.40;;
920;SDS011;447;51.332;6.778;2023-07-13T17:01:13;3.60;;;3.30;;
920;SDS011;447;51.332;6.778;2023-07-13T17:03:40;3.93;;;3.63;;
920;SDS011;447;51.332;6.778;2023-07-13T17:06:19;3.00;;;2.80;;
920;SDS011;447;51.332;6.778;2023-07-13T17:08:53;3.70;;;3.40;;
920;SDS011;447;51.332;6.778;2023-07-13T17:11:20;3.50;;;3.20;;
920;SDS011;447;51.332;6.778;2023-07-13T17:13:47;3.80;;;3.50;;
920;SDS011;447;51.332;6.778;2023-07-13T17:16:13;3.90;;;3.63;;
920;SDS011;447;51.332;6.778;2023-07-13T17:18:39;5.03;;;3.40;;